Flight Track Log - Related Links

Times and Time Zones

All times are in EDT time to prevent confusion due to time zone crossing. See the N70AG flight status page for this flight to view local times or setup timezone preferences in your user account.


Time Position Orientation Groundspeed Altitude Reporting Facility
EDT Latitude Longitude Course Direction KTS MPH feet Rate Location/Type
Tue 03:41:38 PM 32.7667 -117.2667 307° West 219 252 4,400  Level Southern California TRACON
Tue 03:42:40 PM 32.8075 -117.3317 307° West 256 295 8,100 3,097 Climbing Los Angeles Center
Tue 03:43:42 PM 32.8556 -117.4114 306° West 286 329 10,800 2,806 Climbing Los Angeles Center
Tue 03:44:44 PM 32.9158 -117.5078 307° West 353 406 13,900 3,242 Climbing Los Angeles Center
Tue 03:45:46 PM 33.0061 -117.5744 328° Northwest 375 432 17,500 3,145 Climbing Los Angeles Center
Tue 03:46:48 PM 33.0742 -117.6722 310° West 381 438 20,400 2,758 Climbing Los Angeles Center
Tue 03:47:50 PM 33.1456 -117.7761 309° West 398 458 23,200 2,855 Climbing Los Angeles Center
Tue 03:48:52 PM 33.2508 -117.8950 317° Northwest 432 497 26,300 1,839 Climbing Los Angeles Center
Tue 03:49:54 PM 33.3406 -118.0000 316° Northwest 447 514 27,000 339 Climbing Los Angeles Center
Tue 03:50:56 PM 33.4342 -118.1067 316° Northwest 461 531 27,000  Level Los Angeles Center
Tue 03:51:58 PM 33.5283 -118.2153 316° Northwest 467 537 27,000 484 Level Los Angeles Center
Tue 03:53:00 PM 33.6503 -118.2472 348° North 473 544 28,000 882 Climbing Los Angeles Center
Tue 03:54:14 PM 33.7778 -118.1322 37° Northeast 497 572 29,000 438 Climbing Los Angeles Center
Tue 03:55:17 PM 33.8956 -117.9969 44° Northeast 493 567 29,000  Level Los Angeles Center
Tue 03:56:19 PM 33.9939 -117.8853 43° Northeast 490 564 29,000  Level Los Angeles Center
Tue 03:57:21 PM 34.0919 -117.7703 44° Northeast 491 565 29,000  Level Los Angeles Center
Tue 03:58:23 PM 34.1647 -117.6717 48° Northeast 494 568 29,000  Level Los Angeles Center
Tue 03:59:25 PM 34.2903 -117.5014 48° Northeast 485 558 29,000  Level Los Angeles Center
Tue 04:00:27 PM 34.3814 -117.3775 48° Northeast 489 563 29,000 -145 Level Los Angeles Center
Tue 04:01:29 PM 34.4619 -117.2644 49° Northeast 483 556 28,700 -1,210 Descending Los Angeles Center
Tue 04:02:31 PM 34.5539 -117.1383 48° Northeast 429 494 26,500 -1,790 Descending Los Angeles Center
Tue 04:03:33 PM 34.6306 -117.0339 48° Northeast 421 484 25,000 -720 Descending Los Angeles Center
Tue 04:04:36 PM 34.7089 -116.9256 49° Northeast 430 495 25,000 -96 Level Los Angeles Center
Tue 04:05:38 PM 34.7931 -116.8083 49° Northeast 460 529 24,800 -484 Descending Los Angeles Center
Tue 04:06:40 PM 34.8739 -116.6969 48° Northeast 445 512 24,000 -387 Descending Los Angeles Center
Tue 04:07:42 PM 34.9733 -116.5608 48° Northeast 450 518 24,000  Level Los Angeles Center
Tue 04:08:44 PM 35.0608 -116.4536 45° Northeast 446 513 24,000 -145 Level Los Angeles Center
Tue 04:09:46 PM 35.1294 -116.3653 46° Northeast 449 517 23,700 -1,161 Descending Los Angeles Center
Tue 04:10:48 PM 35.2322 -116.2367 46° Northeast 445 512 21,600 -1,790 Descending Los Angeles Center
Tue 04:11:50 PM 35.3156 -116.1325 46° Northeast 433 498 20,000 -1,548 Descending Los Angeles Center
Tue 04:12:52 PM 35.3961 -116.0308 46° Northeast 422 486 18,400 -1,752 Descending Los Angeles Center
Tue 04:13:43 PM 35.4811 -115.9244 46° Northeast 427 491 16,700 -1,840 Descending Los Angeles Center
Tue 04:14:07 PM 35.5117 -115.8858 46° Northeast 426 490 16,100 -1,479 Descending Los Angeles Center
Tue 04:14:56 PM 35.5722 -115.8092 46° Northeast 416 479 14,900 -1,459 Descending Los Angeles Center
Tue 04:15:58 PM 35.6489 -115.7222 43° Northeast 400 460 13,400 -912 Descending Los Angeles Center
Tue 04:17:01 PM 35.7381 -115.6436 36° Northeast 373 429 13,000 -192 Descending Los Angeles Center
Tue 04:18:03 PM 35.8239 -115.5658 36° Northeast 357 411 13,000  Level Los Angeles Center
Tue 04:19:04 PM 35.8881 -115.5067 37° Northeast 353 406 13,000 -698 Level Los Angeles Center
Tue 04:20:12 PM 35.9889 -115.4042 39° Northeast 351 404 11,500 -1,056 Descending Los Angeles Center
Tue 04:21:09 PM 36.0239 -115.3150 64° Northeast 345 397 10,800 -1,377 Descending Los Angeles Center
Tue 04:22:14 PM 36.0186 -115.1925 93° East 289 333 8,700 -1,355 Descending Los Angeles Center
Tue 04:23:13 PM 36.0128 -115.1211 96° East 275 316 8,000 -347 Descending Los Angeles Center
Tue 04:24:15 PM 36.0072 -115.0397 95° East 211 243 8,000  Level Los Angeles Center
Tue 04:25:17 PM 36.0181 -114.9719 79° East 219 252 8,000 -443 Level Los Angeles Center
Tue 04:26:17 PM 36.0686 -114.9364 30° Northeast 208 239 7,100 -919 Descending Los Angeles Center
Tue 04:27:21 PM 36.1192 -114.9094 23° Northeast 208 239 6,100 -1,082 Descending Los Angeles Center
Tue 04:28:19 PM 36.1447 -114.9672 299° West 167 192 4,900 -968 Descending Los Angeles Center
Tue 04:29:25 PM 36.1475 -115.0158 274° West 172 198 4,100 -590 Descending Los Angeles Center
Tue 04:30:21 PM 36.1483 -115.0831 271° West 165 190 3,700 -621 Descending Los Angeles Center
Tue 04:31:21 PM 36.1433 -115.1300 263° West 124 143 2,900 -600 Descending Los Angeles Center
Tue 04:32:31 PM 36.1144 -115.1475 206° Southwest 128 147 2,400 -429 Descending Los Angeles Center
Tue 04:34:00 PM 36.0801 -115.1523 270° West  Level Estimated

Login

Don't have an account? Register now (free) for customized features, flight alerts, and more!